609  
SXUS55 KMSO 240323  
OSOMSO  
MONTANA AWOS SUMMARY  
NATIONAL WEATHER SERVICE MISSOULA MT  
823 PM MST TUE JAN 23 2018  
 
MONTANA AWOS REPORTS  
 
ROUNDUP |KRPX 240315Z AUTO 18009KT 40SM M02/M11 A2996 RMK AO1 T10211110  
 
CLICK HERE TO GO TO PREVIOUS BULLETINS.

The Nexlab MT Page
The Nexlab ID Page Main Text Page